sensor_id;sensor_type;location;lat;lon;timestamp;pressure;altitude;pressure_sealevel;temperature;humidity
40998;BME280;26740;45.944;12.480;2022-12-10T00:01:26;99636.78;;;7.49;100.00
40998;BME280;26740;45.944;12.480;2022-12-10T00:03:52;99642.03;;;7.50;100.00
40998;BME280;26740;45.944;12.480;2022-12-10T00:06:22;99643.06;;;7.44;100.00
40998;BME280;26740;45.944;12.480;2022-12-10T00:08:48;99647.25;;;7.47;100.00
40998;BME280;26740;45.944;12.480;2022-12-10T00:11:16;99647.41;;;7.35;100.00
40998;BME280;26740;45.944;12.480;2022-12-10T00:13:43;99641.72;;;7.47;100.00
40998;BME280;26740;45.944;12.480;2022-12-10T00:16:11;99644.50;;;7.47;100.00
40998;BME280;26740;45.944;12.480;2022-12-10T00:18:37;99646.56;;;7.62;100.00
40998;BME280;26740;45.944;12.480;2022-12-10T00:21:26;99644.41;;;7.69;100.00
40998;BME280;26740;45.944;12.480;2022-12-10T00:23:50;99643.63;;;7.73;100.00
40998;BME280;26740;45.944;12.480;2022-12-10T00:26:23;99638.16;;;7.51;100.00
40998;BME280;26740;45.944;12.480;2022-12-10T00:28:50;99645.22;;;7.37;100.00
40998;BME280;26740;45.944;12.480;2022-12-10T00:31:22;99641.25;;;7.28;100.00
40998;BME280;26740;45.944;12.480;2022-12-10T00:33:49;99637.03;;;7.47;100.00
40998;BME280;26740;45.944;12.480;2022-12-10T00:36:43;99639.47;;;7.44;100.00
40998;BME280;26740;45.944;12.480;2022-12-10T00:39:11;99655.34;;;7.58;100.00
40998;BME280;26740;45.944;12.480;2022-12-10T00:41:37;99662.91;;;7.68;100.00
40998;BME280;26740;45.944;12.480;2022-12-10T00:44:03;99660.72;;;7.70;100.00
40998;BME280;26740;45.944;12.480;2022-12-10T00:46:29;99643.00;;;7.66;100.00
40998;BME280;26740;45.944;12.480;2022-12-10T00:48:55;99648.38;;;7.51;100.00
40998;BME280;26740;45.944;12.480;2022-12-10T00:51:23;99648.13;;;7.52;100.00
40998;BME280;26740;45.944;12.480;2022-12-10T00:53:51;99638.34;;;7.39;100.00
40998;BME280;26740;45.944;12.480;2022-12-10T00:56:20;99641.38;;;7.38;100.00
40998;BME280;26740;45.944;12.480;2022-12-10T00:58:47;99645.84;;;7.44;100.00
40998;BME280;26740;45.944;12.480;2022-12-10T01:01:28;99643.34;;;7.43;100.00
40998;BME280;26740;45.944;12.480;2022-12-10T01:03:57;99661.59;;;7.44;100.00
40998;BME280;26740;45.944;12.480;2022-12-10T01:06:25;99650.84;;;7.47;100.00
40998;BME280;26740;45.944;12.480;2022-12-10T01:08:53;99646.41;;;7.46;100.00
40998;BME280;26740;45.944;12.480;2022-12-10T01:11:21;99657.50;;;7.51;100.00
40998;BME280;26740;45.944;12.480;2022-12-10T01:13:48;99654.47;;;7.53;100.00
40998;BME280;26740;45.944;12.480;2022-12-10T01:16:16;99656.69;;;7.51;100.00
40998;BME280;26740;45.944;12.480;2022-12-10T01:18:42;99653.44;;;7.59;100.00
40998;BME280;26740;45.944;12.480;2022-12-10T01:21:12;99653.72;;;7.57;100.00
40998;BME280;26740;45.944;12.480;2022-12-10T01:23:39;99653.56;;;7.42;100.00
40998;BME280;26740;45.944;12.480;2022-12-10T01:26:09;99643.03;;;7.39;100.00
40998;BME280;26740;45.944;12.480;2022-12-10T01:28:36;99634.53;;;7.46;100.00
40998;BME280;26740;45.944;12.480;2022-12-10T01:31:05;99632.84;;;7.45;100.00
40998;BME280;26740;45.944;12.480;2022-12-10T01:33:31;99622.00;;;7.65;100.00
40998;BME280;26740;45.944;12.480;2022-12-10T01:36:09;99626.13;;;7.63;100.00
40998;BME280;26740;45.944;12.480;2022-12-10T01:38:35;99624.75;;;7.65;100.00
40998;BME280;26740;45.944;12.480;2022-12-10T01:41:03;99630.59;;;7.69;100.00
40998;BME280;26740;45.944;12.480;2022-12-10T01:43:49;99621.13;;;7.59;100.00
40998;BME280;26740;45.944;12.480;2022-12-10T01:46:15;99620.31;;;7.59;100.00
40998;BME280;26740;45.944;12.480;2022-12-10T01:48:41;99619.19;;;7.60;100.00
40998;BME280;26740;45.944;12.480;2022-12-10T01:51:08;99620.09;;;7.38;100.00
40998;BME280;26740;45.944;12.480;2022-12-10T01:53:34;99629.53;;;7.43;100.00
40998;BME280;26740;45.944;12.480;2022-12-10T01:56:00;99639.59;;;7.54;100.00
40998;BME280;26740;45.944;12.480;2022-12-10T01:58:25;99626.66;;;7.59;100.00
40998;BME280;26740;45.944;12.480;2022-12-10T02:01:01;99617.25;;;7.28;100.00
40998;BME280;26740;45.944;12.480;2022-12-10T02:22:55;99632.47;;;7.63;100.00
40998;BME280;26740;45.944;12.480;2022-12-10T02:25:29;99628.66;;;7.69;100.00
40998;BME280;26740;45.944;12.480;2022-12-10T02:30:29;99618.91;;;7.29;100.00
40998;BME280;26740;45.944;12.480;2022-12-10T02:32:58;99603.84;;;7.42;100.00
40998;BME280;26740;45.944;12.480;2022-12-10T02:35:28;99592.84;;;7.47;100.00
40998;BME280;26740;45.944;12.480;2022-12-10T02:38:02;99593.41;;;7.49;100.00
40998;BME280;26740;45.944;12.480;2022-12-10T02:40:33;99597.28;;;7.48;100.00
40998;BME280;26740;45.944;12.480;2022-12-10T02:43:01;99590.06;;;7.47;100.00
40998;BME280;26740;45.944;12.480;2022-12-10T02:45:28;99587.31;;;7.47;100.00
40998;BME280;26740;45.944;12.480;2022-12-10T02:48:00;99594.22;;;7.50;100.00
40998;BME280;26740;45.944;12.480;2022-12-10T02:50:27;99588.72;;;7.50;100.00
40998;BME280;26740;45.944;12.480;2022-12-10T02:52:52;99585.16;;;7.54;100.00
40998;BME280;26740;45.944;12.480;2022-12-10T02:55:18;99588.00;;;7.65;100.00
40998;BME280;26740;45.944;12.480;2022-12-10T03:00:22;99589.41;;;7.67;100.00
40998;BME280;26740;45.944;12.480;2022-12-10T03:05:55;99595.78;;;7.68;100.00
40998;BME280;26740;45.944;12.480;2022-12-10T03:08:38;99597.34;;;7.91;100.00
40998;BME280;26740;45.944;12.480;2022-12-10T03:14:16;99599.19;;;7.80;100.00
40998;BME280;26740;45.944;12.480;2022-12-10T03:16:49;99588.53;;;7.62;100.00
40998;BME280;26740;45.944;12.480;2022-12-10T03:19:20;99585.34;;;7.43;100.00
40998;BME280;26740;45.944;12.480;2022-12-10T03:21:49;99583.44;;;7.43;100.00
40998;BME280;26740;45.944;12.480;2022-12-10T03:24:16;99585.94;;;7.50;100.00
40998;BME280;26740;45.944;12.480;2022-12-10T03:26:45;99595.03;;;7.45;100.00
40998;BME280;26740;45.944;12.480;2022-12-10T03:29:17;99605.97;;;7.67;100.00
40998;BME280;26740;45.944;12.480;2022-12-10T03:31:44;99608.47;;;7.69;100.00
40998;BME280;26740;45.944;12.480;2022-12-10T03:34:11;99611.50;;;7.67;100.00
40998;BME280;26740;45.944;12.480;2022-12-10T03:36:39;99606.44;;;7.54;100.00
40998;BME280;26740;45.944;12.480;2022-12-10T03:39:06;99598.28;;;7.37;100.00
40998;BME280;26740;45.944;12.480;2022-12-10T03:41:32;99600.22;;;7.36;100.00
40998;BME280;26740;45.944;12.480;2022-12-10T03:43:59;99603.06;;;7.47;100.00
40998;BME280;26740;45.944;12.480;2022-12-10T03:46:28;99596.63;;;7.41;100.00
40998;BME280;26740;45.944;12.480;2022-12-10T03:48:55;99591.78;;;7.53;100.00
40998;BME280;26740;45.944;12.480;2022-12-10T03:51:21;99585.50;;;7.63;100.00
40998;BME280;26740;45.944;12.480;2022-12-10T03:53:47;99578.00;;;7.58;100.00
40998;BME280;26740;45.944;12.480;2022-12-10T03:56:20;99578.88;;;7.59;100.00
40998;BME280;26740;45.944;12.480;2022-12-10T03:58:46;99583.78;;;7.52;100.00
40998;BME280;26740;45.944;12.480;2022-12-10T04:01:13;99591.50;;;7.55;100.00
40998;BME280;26740;45.944;12.480;2022-12-10T04:03:40;99595.22;;;7.71;100.00
40998;BME280;26740;45.944;12.480;2022-12-10T04:06:12;99612.38;;;7.73;100.00
40998;BME280;26740;45.944;12.480;2022-12-10T04:08:38;99607.75;;;7.78;100.00
40998;BME280;26740;45.944;12.480;2022-12-10T04:11:05;99599.66;;;7.72;100.00
40998;BME280;26740;45.944;12.480;2022-12-10T04:13:33;99597.69;;;7.67;100.00
40998;BME280;26740;45.944;12.480;2022-12-10T04:16:17;99605.50;;;7.75;100.00
40998;BME280;26740;45.944;12.480;2022-12-10T04:19:01;99598.31;;;7.74;100.00
40998;BME280;26740;45.944;12.480;2022-12-10T04:21:30;99599.09;;;7.70;100.00
40998;BME280;26740;45.944;12.480;2022-12-10T04:24:17;99582.25;;;7.39;100.00
40998;BME280;26740;45.944;12.480;2022-12-10T04:27:11;99569.94;;;7.47;100.00
40998;BME280;26740;45.944;12.480;2022-12-10T04:29:38;99557.75;;;7.48;100.00
40998;BME280;26740;45.944;12.480;2022-12-10T04:32:04;99544.59;;;7.60;100.00
40998;BME280;26740;45.944;12.480;2022-12-10T04:34:30;99547.41;;;7.65;100.00
40998;BME280;26740;45.944;12.480;2022-12-10T04:36:57;99556.25;;;7.67;100.00
40998;BME280;26740;45.944;12.480;2022-12-10T04:39:24;99562.88;;;7.66;100.00
40998;BME280;26740;45.944;12.480;2022-12-10T04:41:49;99563.44;;;7.68;100.00
40998;BME280;26740;45.944;12.480;2022-12-10T04:44:16;99562.84;;;7.61;100.00
40998;BME280;26740;45.944;12.480;2022-12-10T04:46:42;99545.13;;;7.57;100.00
40998;BME280;26740;45.944;12.480;2022-12-10T04:49:08;99534.16;;;7.67;100.00
40998;BME280;26740;45.944;12.480;2022-12-10T04:51:33;99532.63;;;7.87;100.00
40998;BME280;26740;45.944;12.480;2022-12-10T04:53:59;99532.34;;;7.88;100.00
40998;BME280;26740;45.944;12.480;2022-12-10T04:56:25;99529.81;;;7.82;100.00
40998;BME280;26740;45.944;12.480;2022-12-10T04:58:51;99548.66;;;7.90;100.00
40998;BME280;26740;45.944;12.480;2022-12-10T05:01:17;99548.41;;;7.91;100.00
40998;BME280;26740;45.944;12.480;2022-12-10T05:03:44;99542.84;;;7.86;100.00
40998;BME280;26740;45.944;12.480;2022-12-10T05:06:12;99545.34;;;7.88;100.00
40998;BME280;26740;45.944;12.480;2022-12-10T05:08:39;99535.03;;;7.78;100.00
40998;BME280;26740;45.944;12.480;2022-12-10T05:11:19;99531.31;;;7.57;100.00
40998;BME280;26740;45.944;12.480;2022-12-10T05:13:46;99531.00;;;7.48;100.00
40998;BME280;26740;45.944;12.480;2022-12-10T05:16:14;99529.63;;;7.51;100.00
40998;BME280;26740;45.944;12.480;2022-12-10T05:18:40;99527.50;;;7.63;100.00
40998;BME280;26740;45.944;12.480;2022-12-10T05:21:08;99520.56;;;7.60;100.00
40998;BME280;26740;45.944;12.480;2022-12-10T05:23:40;99529.88;;;7.49;100.00
40998;BME280;26740;45.944;12.480;2022-12-10T05:26:09;99522.97;;;7.47;100.00
40998;BME280;26740;45.944;12.480;2022-12-10T05:28:37;99533.25;;;7.56;100.00
40998;BME280;26740;45.944;12.480;2022-12-10T05:31:04;99535.34;;;7.76;100.00
40998;BME280;26740;45.944;12.480;2022-12-10T05:33:31;99536.22;;;7.87;100.00
40998;BME280;26740;45.944;12.480;2022-12-10T05:36:01;99536.41;;;7.75;100.00
40998;BME280;26740;45.944;12.480;2022-12-10T05:38:29;99528.41;;;7.74;100.00
40998;BME280;26740;45.944;12.480;2022-12-10T05:40:55;99528.91;;;7.71;100.00
40998;BME280;26740;45.944;12.480;2022-12-10T05:43:21;99523.13;;;7.72;100.00
40998;BME280;26740;45.944;12.480;2022-12-10T05:45:47;99518.44;;;7.73;100.00
40998;BME280;26740;45.944;12.480;2022-12-10T05:48:14;99508.25;;;7.78;100.00
40998;BME280;26740;45.944;12.480;2022-12-10T05:50:40;99518.00;;;7.91;100.00
40998;BME280;26740;45.944;12.480;2022-12-10T05:53:06;99531.00;;;7.91;100.00
40998;BME280;26740;45.944;12.480;2022-12-10T05:55:32;99525.72;;;7.89;100.00
40998;BME280;26740;45.944;12.480;2022-12-10T05:57:59;99529.88;;;7.92;100.00
40998;BME280;26740;45.944;12.480;2022-12-10T06:00:26;99526.81;;;7.88;100.00
40998;BME280;26740;45.944;12.480;2022-12-10T06:02:52;99533.50;;;7.97;100.00
40998;BME280;26740;45.944;12.480;2022-12-10T06:05:18;99522.72;;;7.91;100.00
40998;BME280;26740;45.944;12.480;2022-12-10T06:07:44;99530.44;;;7.94;100.00
40998;BME280;26740;45.944;12.480;2022-12-10T06:10:10;99521.06;;;7.95;100.00
40998;BME280;26740;45.944;12.480;2022-12-10T06:12:36;99511.06;;;7.84;100.00
40998;BME280;26740;45.944;12.480;2022-12-10T06:15:03;99513.97;;;7.67;100.00
40998;BME280;26740;45.944;12.480;2022-12-10T06:17:29;99508.25;;;7.78;100.00
40998;BME280;26740;45.944;12.480;2022-12-10T06:19:54;99510.75;;;7.85;100.00
40998;BME280;26740;45.944;12.480;2022-12-10T06:22:20;99503.88;;;7.88;100.00
40998;BME280;26740;45.944;12.480;2022-12-10T06:24:46;99495.88;;;7.86;100.00
40998;BME280;26740;45.944;12.480;2022-12-10T06:27:11;99485.31;;;7.78;100.00
40998;BME280;26740;45.944;12.480;2022-12-10T06:29:37;99477.91;;;7.84;100.00
40998;BME280;26740;45.944;12.480;2022-12-10T06:32:03;99485.31;;;7.78;100.00
40998;BME280;26740;45.944;12.480;2022-12-10T06:34:28;99485.56;;;7.71;100.00
40998;BME280;26740;45.944;12.480;2022-12-10T06:36:54;99487.50;;;7.76;100.00
40998;BME280;26740;45.944;12.480;2022-12-10T06:39:20;99496.13;;;7.85;100.00
40998;BME280;26740;45.944;12.480;2022-12-10T06:41:45;99498.38;;;7.88;100.00
40998;BME280;26740;45.944;12.480;2022-12-10T06:44:12;99493.91;;;7.87;100.00
40998;BME280;26740;45.944;12.480;2022-12-10T06:46:39;99495.63;;;7.93;100.00
40998;BME280;26740;45.944;12.480;2022-12-10T06:49:05;99493.16;;;7.96;100.00
40998;BME280;26740;45.944;12.480;2022-12-10T06:51:31;99489.53;;;7.91;100.00
40998;BME280;26740;45.944;12.480;2022-12-10T06:53:57;99479.81;;;7.83;100.00
40998;BME280;26740;45.944;12.480;2022-12-10T06:56:23;99480.72;;;7.99;100.00
40998;BME280;26740;45.944;12.480;2022-12-10T06:58:49;99494.56;;;8.04;100.00
40998;BME280;26740;45.944;12.480;2022-12-10T07:01:20;99495.41;;;8.10;100.00
40998;BME280;26740;45.944;12.480;2022-12-10T07:03:50;99501.84;;;8.26;100.00
40998;BME280;26740;45.944;12.480;2022-12-10T07:06:16;99514.03;;;8.30;100.00
40998;BME280;26740;45.944;12.480;2022-12-10T07:08:42;99511.59;;;8.39;100.00
40998;BME280;26740;45.944;12.480;2022-12-10T07:11:12;99524.75;;;8.16;100.00
40998;BME280;26740;45.944;12.480;2022-12-10T07:13:39;99521.16;;;8.10;100.00
40998;BME280;26740;45.944;12.480;2022-12-10T07:16:17;99516.47;;;8.16;100.00
40998;BME280;26740;45.944;12.480;2022-12-10T07:18:43;99521.78;;;8.28;100.00
40998;BME280;26740;45.944;12.480;2022-12-10T07:21:16;99514.91;;;8.35;100.00
40998;BME280;26740;45.944;12.480;2022-12-10T07:23:42;99514.09;;;8.40;100.00
40998;BME280;26740;45.944;12.480;2022-12-10T07:26:08;99513.84;;;8.47;100.00
40998;BME280;26740;45.944;12.480;2022-12-10T07:28:34;99515.53;;;8.53;100.00
40998;BME280;26740;45.944;12.480;2022-12-10T07:31:01;99518.03;;;8.49;100.00
40998;BME280;26740;45.944;12.480;2022-12-10T07:33:27;99528.25;;;8.49;100.00
40998;BME280;26740;45.944;12.480;2022-12-10T07:35:53;99531.59;;;8.56;100.00
40998;BME280;26740;45.944;12.480;2022-12-10T07:38:19;99535.16;;;8.46;100.00
40998;BME280;26740;45.944;12.480;2022-12-10T07:40:44;99531.31;;;8.52;100.00
40998;BME280;26740;45.944;12.480;2022-12-10T07:43:10;99533.53;;;8.61;100.00
40998;BME280;26740;45.944;12.480;2022-12-10T07:45:36;99530.00;;;8.76;100.00
40998;BME280;26740;45.944;12.480;2022-12-10T07:48:01;99530.03;;;8.86;100.00
40998;BME280;26740;45.944;12.480;2022-12-10T07:50:27;99529.75;;;8.98;100.00
40998;BME280;26740;45.944;12.480;2022-12-10T07:52:52;99537.22;;;8.97;100.00
40998;BME280;26740;45.944;12.480;2022-12-10T07:55:18;99534.16;;;8.78;100.00
40998;BME280;26740;45.944;12.480;2022-12-10T07:57:44;99543.75;;;8.55;100.00
40998;BME280;26740;45.944;12.480;2022-12-10T08:00:10;99531.84;;;8.44;100.00
40998;BME280;26740;45.944;12.480;2022-12-10T08:02:36;99537.41;;;8.54;100.00
40998;BME280;26740;45.944;12.480;2022-12-10T08:05:01;99535.50;;;8.65;100.00
40998;BME280;26740;45.944;12.480;2022-12-10T08:07:27;99521.94;;;8.64;100.00
40998;BME280;26740;45.944;12.480;2022-12-10T08:09:53;99530.53;;;8.67;100.00
40998;BME280;26740;45.944;12.480;2022-12-10T08:12:18;99518.91;;;8.70;100.00
40998;BME280;26740;45.944;12.480;2022-12-10T08:14:44;99524.75;;;8.79;100.00
40998;BME280;26740;45.944;12.480;2022-12-10T08:17:09;99525.03;;;8.98;100.00
40998;BME280;26740;45.944;12.480;2022-12-10T08:19:35;99524.25;;;9.28;100.00
40998;BME280;26740;45.944;12.480;2022-12-10T08:22:01;99530.63;;;9.39;100.00
40998;BME280;26740;45.944;12.480;2022-12-10T08:24:26;99525.63;;;9.41;100.00
40998;BME280;26740;45.944;12.480;2022-12-10T08:26:52;99524.50;;;9.58;100.00
40998;BME280;26740;45.944;12.480;2022-12-10T08:29:18;99525.06;;;9.55;100.00
40998;BME280;26740;45.944;12.480;2022-12-10T08:31:43;99526.44;;;9.67;100.00
40998;BME280;26740;45.944;12.480;2022-12-10T08:34:15;99527.28;;;9.68;100.00
40998;BME280;26740;45.944;12.480;2022-12-10T08:36:42;99534.16;;;9.86;100.00
40998;BME280;26740;45.944;12.480;2022-12-10T08:39:09;99536.41;;;9.74;100.00
40998;BME280;26740;45.944;12.480;2022-12-10T08:41:43;99529.78;;;9.64;100.00
40998;BME280;26740;45.944;12.480;2022-12-10T08:44:10;99542.81;;;9.69;100.00
40998;BME280;26740;45.944;12.480;2022-12-10T08:46:35;99539.50;;;9.57;100.00
40998;BME280;26740;45.944;12.480;2022-12-10T08:49:02;99540.59;;;9.56;100.00
40998;BME280;26740;45.944;12.480;2022-12-10T08:51:28;99526.72;;;9.51;100.00
40998;BME280;26740;45.944;12.480;2022-12-10T08:53:54;99515.66;;;9.56;100.00
40998;BME280;26740;45.944;12.480;2022-12-10T08:56:20;99522.81;;;9.67;100.00
40998;BME280;26740;45.944;12.480;2022-12-10T08:58:46;99532.00;;;9.57;100.00
40998;BME280;26740;45.944;12.480;2022-12-10T09:01:15;99522.00;;;9.61;100.00
40998;BME280;26740;45.944;12.480;2022-12-10T09:03:41;99517.88;;;9.64;100.00
40998;BME280;26740;45.944;12.480;2022-12-10T09:06:10;99510.09;;;9.71;100.00
40998;BME280;26740;45.944;12.480;2022-12-10T09:08:37;99511.78;;;9.52;100.00
40998;BME280;26740;45.944;12.480;2022-12-10T09:11:13;99508.69;;;9.74;100.00
40998;BME280;26740;45.944;12.480;2022-12-10T09:13:39;99507.88;;;9.68;100.00
40998;BME280;26740;45.944;12.480;2022-12-10T09:16:05;99505.88;;;9.89;100.00
40998;BME280;26740;45.944;12.480;2022-12-10T09:18:31;99494.78;;;9.99;100.00
40998;BME280;26740;45.944;12.480;2022-12-10T09:20:57;99493.44;;;9.86;100.00
40998;BME280;26740;45.944;12.480;2022-12-10T09:23:23;99488.75;;;9.72;100.00
40998;BME280;26740;45.944;12.480;2022-12-10T09:25:49;99486.22;;;9.80;100.00
40998;BME280;26740;45.944;12.480;2022-12-10T09:28:14;99481.97;;;10.09;100.00
40998;BME280;26740;45.944;12.480;2022-12-10T09:30:40;99476.13;;;10.20;100.00
40998;BME280;26740;45.944;12.480;2022-12-10T09:33:06;99470.59;;;10.15;100.00
40998;BME280;26740;45.944;12.480;2022-12-10T09:35:31;99463.31;;;10.30;100.00
40998;BME280;26740;45.944;12.480;2022-12-10T09:37:57;99455.75;;;10.51;100.00
40998;BME280;26740;45.944;12.480;2022-12-10T09:40:35;99454.50;;;10.67;100.00
40998;BME280;26740;45.944;12.480;2022-12-10T09:43:41;99452.53;;;10.73;100.00
40998;BME280;26740;45.944;12.480;2022-12-10T09:46:23;99460.94;;;10.62;100.00
40998;BME280;26740;45.944;12.480;2022-12-10T09:49:13;99460.22;;;10.47;100.00
40998;BME280;26740;45.944;12.480;2022-12-10T09:51:42;99453.00;;;10.40;100.00
40998;BME280;26740;45.944;12.480;2022-12-10T09:54:19;99438.84;;;10.42;100.00
40998;BME280;26740;45.944;12.480;2022-12-10T09:56:48;99451.06;;;10.41;100.00
40998;BME280;26740;45.944;12.480;2022-12-10T09:59:32;99444.38;;;10.47;100.00
40998;BME280;26740;45.944;12.480;2022-12-10T10:02:02;99440.63;;;10.17;100.00
40998;BME280;26740;45.944;12.480;2022-12-10T10:04:29;99429.81;;;10.16;100.00
40998;BME280;26740;45.944;12.480;2022-12-10T10:06:54;99431.47;;;10.17;100.00
40998;BME280;26740;45.944;12.480;2022-12-10T10:09:21;99416.50;;;10.13;100.00
40998;BME280;26740;45.944;12.480;2022-12-10T10:11:47;99407.34;;;10.17;100.00
40998;BME280;26740;45.944;12.480;2022-12-10T10:14:26;99405.63;;;10.21;100.00
40998;BME280;26740;45.944;12.480;2022-12-10T10:17:01;99405.59;;;10.27;100.00
40998;BME280;26740;45.944;12.480;2022-12-10T10:19:30;99407.81;;;10.30;100.00
40998;BME280;26740;45.944;12.480;2022-12-10T10:21:59;99409.50;;;10.25;100.00
40998;BME280;26740;45.944;12.480;2022-12-10T10:24:34;99408.66;;;10.25;100.00
40998;BME280;26740;45.944;12.480;2022-12-10T10:27:16;99405.34;;;10.23;100.00
40998;BME280;26740;45.944;12.480;2022-12-10T10:29:44;99404.31;;;10.14;100.00
40998;BME280;26740;45.944;12.480;2022-12-10T10:32:22;99402.66;;;10.07;100.00
40998;BME280;26740;45.944;12.480;2022-12-10T10:34:56;99407.16;;;9.93;100.00
40998;BME280;26740;45.944;12.480;2022-12-10T10:39:49;99396.69;;;9.80;100.00
40998;BME280;26740;45.944;12.480;2022-12-10T10:42:39;99401.47;;;9.59;100.00
40998;BME280;26740;45.944;12.480;2022-12-10T10:45:33;99393.69;;;9.66;100.00
40998;BME280;26740;45.944;12.480;2022-12-10T10:50:43;99387.63;;;9.54;100.00
40998;BME280;26740;45.944;12.480;2022-12-10T10:53:30;99386.47;;;9.65;100.00
40998;BME280;26740;45.944;12.480;2022-12-10T10:56:29;99385.94;;;9.63;100.00
40998;BME280;26740;45.944;12.480;2022-12-10T10:59:04;99366.50;;;9.73;100.00
40998;BME280;26740;45.944;12.480;2022-12-10T11:01:44;99364.28;;;9.75;100.00
40998;BME280;26740;45.944;12.480;2022-12-10T11:04:13;99358.72;;;9.80;100.00
40998;BME280;26740;45.944;12.480;2022-12-10T11:06:40;99365.28;;;9.95;100.00
40998;BME280;26740;45.944;12.480;2022-12-10T11:09:06;99362.78;;;9.98;100.00
40998;BME280;26740;45.944;12.480;2022-12-10T11:11:39;99355.56;;;10.02;100.00
40998;BME280;26740;45.944;12.480;2022-12-10T11:14:24;99351.66;;;10.03;100.00
40998;BME280;26740;45.944;12.480;2022-12-10T11:17:11;99340.00;;;10.06;100.00
40998;BME280;26740;45.944;12.480;2022-12-10T11:22:25;99339.19;;;10.06;100.00
40998;BME280;26740;45.944;12.480;2022-12-10T11:24:51;99323.28;;;10.17;100.00
40998;BME280;26740;45.944;12.480;2022-12-10T11:27:44;99325.19;;;10.21;100.00
40998;BME280;26740;45.944;12.480;2022-12-10T11:30:17;99314.28;;;10.40;100.00
40998;BME280;26740;45.944;12.480;2022-12-10T11:32:53;99314.34;;;10.25;100.00
40998;BME280;26740;45.944;12.480;2022-12-10T11:38:23;99297.09;;;10.38;100.00
40998;BME280;26740;45.944;12.480;2022-12-10T11:43:48;99284.59;;;10.70;100.00
40998;BME280;26740;45.944;12.480;2022-12-10T11:46:31;99275.53;;;10.59;100.00
40998;BME280;26740;45.944;12.480;2022-12-10T11:57:30;99258.19;;;11.02;100.00
40998;BME280;26740;45.944;12.480;2022-12-10T12:00:05;99256.47;;;11.06;100.00
40998;BME280;26740;45.944;12.480;2022-12-10T12:13:50;99242.47;;;11.60;100.00
40998;BME280;26740;45.944;12.480;2022-12-10T12:16:31;99236.00;;;11.64;100.00
40998;BME280;26740;45.944;12.480;2022-12-10T12:21:36;99237.44;;;11.62;100.00
40998;BME280;26740;45.944;12.480;2022-12-10T12:24:03;99226.84;;;11.64;100.00
40998;BME280;26740;45.944;12.480;2022-12-10T12:26:37;99230.97;;;11.66;100.00
40998;BME280;26740;45.944;12.480;2022-12-10T12:32:01;99223.78;;;11.65;100.00
40998;BME280;26740;45.944;12.480;2022-12-10T12:37:16;99225.19;;;11.63;100.00
40998;BME280;26740;45.944;12.480;2022-12-10T12:40:13;99212.13;;;11.63;100.00
40998;BME280;26740;45.944;12.480;2022-12-10T12:43:09;99206.88;;;11.62;100.00
40998;BME280;26740;45.944;12.480;2022-12-10T12:45:43;99209.19;;;11.73;100.00
40998;BME280;26740;45.944;12.480;2022-12-10T12:48:32;99201.75;;;11.69;100.00
40998;BME280;26740;45.944;12.480;2022-12-10T12:51:09;99214.28;;;11.66;100.00
40998;BME280;26740;45.944;12.480;2022-12-10T12:53:35;99206.31;;;11.79;100.00
40998;BME280;26740;45.944;12.480;2022-12-10T13:01:37;99197.97;;;12.17;100.00
40998;BME280;26740;45.944;12.480;2022-12-10T13:04:06;99194.78;;;11.90;100.00
40998;BME280;26740;45.944;12.480;2022-12-10T13:06:35;99194.22;;;11.88;100.00
40998;BME280;26740;45.944;12.480;2022-12-10T13:11:41;99190.03;;;11.53;100.00
40998;BME280;26740;45.944;12.480;2022-12-10T13:22:08;99188.28;;;11.19;100.00
40998;BME280;26740;45.944;12.480;2022-12-10T13:32:44;99193.72;;;11.05;100.00
40998;BME280;26740;45.944;12.480;2022-12-10T13:40:26;99190.16;;;10.75;100.00
40998;BME280;26740;45.944;12.480;2022-12-10T13:43:22;99183.13;;;10.83;100.00
40998;BME280;26740;45.944;12.480;2022-12-10T13:46:21;99191.34;;;10.69;100.00
40998;BME280;26740;45.944;12.480;2022-12-10T13:48:49;99198.94;;;10.58;100.00
40998;BME280;26740;45.944;12.480;2022-12-10T13:57:34;99198.66;;;10.60;100.00
40998;BME280;26740;45.944;12.480;2022-12-10T14:05:42;99199.25;;;10.81;100.00
40998;BME280;26740;45.944;12.480;2022-12-10T14:08:50;99204.81;;;10.81;100.00
40998;BME280;26740;45.944;12.480;2022-12-10T14:11:20;99204.19;;;10.60;100.00
40998;BME280;26740;45.944;12.480;2022-12-10T14:13:53;99214.81;;;10.53;100.00
40998;BME280;26740;45.944;12.480;2022-12-10T14:16:21;99211.72;;;10.59;100.00
40998;BME280;26740;45.944;12.480;2022-12-10T14:18:55;99220.28;;;10.63;100.00
40998;BME280;26740;45.944;12.480;2022-12-10T14:21:22;99215.00;;;10.61;100.00
40998;BME280;26740;45.944;12.480;2022-12-10T14:23:51;99218.31;;;10.63;100.00
40998;BME280;26740;45.944;12.480;2022-12-10T14:26:19;99220.56;;;10.61;100.00
40998;BME280;26740;45.944;12.480;2022-12-10T14:28:53;99222.28;;;10.57;100.00
40998;BME280;26740;45.944;12.480;2022-12-10T14:31:43;99219.75;;;10.61;100.00
40998;BME280;26740;45.944;12.480;2022-12-10T14:34:10;99220.91;;;10.55;100.00
40998;BME280;26740;45.944;12.480;2022-12-10T14:36:47;99229.47;;;10.58;100.00
40998;BME280;26740;45.944;12.480;2022-12-10T14:39:16;99229.84;;;10.52;100.00
40998;BME280;26740;45.944;12.480;2022-12-10T14:41:43;99223.25;;;10.42;100.00
40998;BME280;26740;45.944;12.480;2022-12-10T14:44:14;99224.19;;;10.33;100.00
40998;BME280;26740;45.944;12.480;2022-12-10T14:46:41;99229.78;;;10.22;100.00
40998;BME280;26740;45.944;12.480;2022-12-10T14:49:15;99240.38;;;10.15;100.00
40998;BME280;26740;45.944;12.480;2022-12-10T14:51:41;99239.84;;;10.13;100.00
40998;BME280;26740;45.944;12.480;2022-12-10T14:54:30;99240.94;;;10.12;100.00
40998;BME280;26740;45.944;12.480;2022-12-10T14:56:58;99243.25;;;10.00;100.00